Thunder radar more information blitzortung!


avis per Snow/Ice more information rain snow radar


Visita la nostra xarxa de llocs de meteo:

Template documentation
and downloads

And another site



Snow/Ice From: 26-02-2018 12:00 Until: 27-02-2018 05:59 warning for: Snow/Ice Level: Yellow info button

Pagina Historial Weather Underground text

Diari Resum Desembre 21, 2017 Unitats:  Imperial    Mètric   Tant
« Previous Dia
SegĂźent Dia »
Diari Setmana Mensual Anual Personalitzada
  Maxima: Minima: Media:
Temperatura: TemperatureC °F 3.0 °F 8.7 °F
Punt de rosada: DewpointC °F -1.7 °F 0.9 °F
Humitat: Humidity % 52 % 58 %
Wind Speed: WindSpeedKMH mph 0.0 mph 2.6 mph
RĂ fegues de vent: WindSpeedGustKMH mph - -
Vent:- - SSE
Pression baro: PressurehPa in 1030.7 in -
Precipitacions: 0.0 in    
Historical Graphs
 
 
Dades de taula per Desembre 21, 2017
Temps Temperatura Punt de rosada Pression baro Vent Wind Speed RĂ fegues de vent Humitat Rainfall Rate (Hourly)
TemperatureC °F DewpointC °F PressurehPa in Calm     Humidity % HourlyPrecipMM in
00:00 6.3 °F 0.0 °F 1032.7 in Calm     64 % 0.0 in
00:05 6.3 °F 0.0 °F 1032.7 in Calm     64 % 0.0 in
00:07 6.3 °F 0.0 °F 1032.7 in Calm     64 % 0.0 in
00:15 4.8 °F -0.6 °F 1033.7 in Calm     68 % 0.0 in
00:25 4.7 °F -0.7 °F 1033.7 in Calm   1.6 mph 68 % 0.0 in
00:35 4.7 °F -0.7 °F 1032.7 in Calm   1.6 mph 68 % 0.0 in
00:45 4.7 °F -0.7 °F 1032.7 in Calm   1.6 mph 68 % 0.0 in
00:55 4.6 °F -0.8 °F 1033.7 in NW 1.6 mph 3.2 mph 68 % 0.0 in
01:05 4.5 °F -0.9 °F 1033.7 in West 1.6 mph 3.2 mph 68 % 0.0 in
01:15 4.3 °F -1.1 °F 1033.7 in WSW 1.6 mph 3.2 mph 68 % 0.0 in
01:25 4.2 °F -1.0 °F 1033.7 in Calm   1.6 mph 69 % 0.0 in
01:35 4.0 °F -1.2 °F 1033.7 in Calm     69 % 0.0 in
01:45 3.9 °F -1.3 °F 1033.7 in Calm   1.6 mph 69 % 0.0 in
01:55 3.9 °F -1.3 °F 1033.7 in WNW 1.6 mph 3.2 mph 69 % 0.0 in
02:05 3.8 °F -1.2 °F 1034.8 in Calm   3.2 mph 70 % 0.0 in
02:15 3.7 °F -1.3 °F 1034.8 in Calm     70 % 0.0 in
02:25 3.5 °F -1.4 °F 1034.8 in NNW 1.6 mph 1.6 mph 70 % 0.0 in
02:35 3.2 °F -1.7 °F 1034.8 in West 3.2 mph 3.2 mph 70 % 0.0 in
02:45 3.2 °F -1.7 °F 1034.8 in Calm   1.6 mph 70 % 0.0 in
02:55 3.2 °F -1.6 °F 1034.8 in Calm     71 % 0.0 in
03:05 3.0 °F -1.7 °F 1035.8 in SW 1.6 mph 3.2 mph 71 % 0.0 in
03:15 3.2 °F -1.6 °F 1035.8 in SW 1.6 mph 4.8 mph 71 % 0.0 in
03:25 3.7 °F -0.9 °F 1035.8 in WSW 1.6 mph 3.2 mph 72 % 0.0 in
03:35 4.2 °F -0.6 °F 1035.8 in WSW 1.6 mph 3.2 mph 71 % 0.0 in
03:45 5.0 °F 0.2 °F 1035.8 in WSW 3.2 mph 3.2 mph 71 % 0.0 in
03:55 6.0 °F 0.9 °F 1035.8 in SW 1.6 mph 3.2 mph 70 % 0.0 in
04:05 6.3 °F 0.8 °F 1036.8 in Calm   3.2 mph 68 % 0.0 in
04:15 6.6 °F 0.9 °F 1036.8 in East 3.2 mph 3.2 mph 67 % 0.0 in
04:25 6.5 °F 0.6 °F 1035.8 in ENE 3.2 mph 4.8 mph 66 % 0.0 in
04:35 6.7 °F 0.6 °F 1035.8 in ENE 3.2 mph 4.8 mph 65 % 0.0 in
04:45 7.2 °F 1.1 °F 1035.8 in NNE 1.6 mph 4.8 mph 65 % 0.0 in
10:49 7.5 °F 1.3 °F 1035.8 in NE 1.9 mph 1.9 mph 65 % 0.0 in
10:50 7.5 °F 1.3 °F 1035.8 in NNE 3.2 mph 3.2 mph 65 % 0.0 in
10:52 7.7 °F 1.3 °F 1035.8 in NNW 3.7 mph 3.7 mph 64 % 0.0 in
10:56 8.0 °F 1.6 °F 1035.8 in WNW 3.2 mph   64 % 0.0 in
11:01 8.3 °F 1.7 °F 1035.8 in East 3.9 mph 3.9 mph 63 % 0.0 in
11:02 8.3 °F 1.4 °F 1035.8 in NNE 3.7 mph 3.7 mph 62 % 0.0 in
11:06 8.4 °F 1.6 °F 1035.8 in ENE 3.7 mph 3.7 mph 62 % 0.0 in
11:07 8.5 °F 1.6 °F 1035.8 in NW 3.7 mph 3.7 mph 62 % 0.0 in
11:11 8.7 °F 1.8 °F 1035.8 in NNE 3.7 mph 3.7 mph 62 % 0.0 in
11:12 8.7 °F 1.8 °F 1035.8 in NNE 4.2 mph 4.2 mph 62 % 0.0 in
11:16 8.6 °F 1.7 °F 1035.8 in NE 3.7 mph 3.7 mph 62 % 0.0 in
11:18 8.7 °F 1.8 °F 1035.8 in NNE 3.7 mph 3.7 mph 62 % 0.0 in
11:23 8.7 °F 1.6 °F 1035.8 in NNE 3.7 mph 3.7 mph 61 % 0.0 in
11:28 8.6 °F 1.5 °F 1035.8 in North 7.4 mph 7.4 mph 61 % 0.0 in
11:33 8.9 °F 1.8 °F 1035.8 in NE 5.0 mph 5.0 mph 61 % 0.0 in
11:34 8.9 °F 1.8 °F 1035.8 in ENE 7.6 mph 7.6 mph 61 % 0.0 in
11:37 8.7 °F 1.3 °F 1035.8 in East 7.4 mph 7.4 mph 60 % 0.0 in
11:41 8.7 °F 1.3 °F 1035.8 in NE 6.1 mph 6.1 mph 60 % 0.0 in
11:44 8.8 °F 1.4 °F 1035.8 in NNE 7.9 mph 7.9 mph 60 % 0.0 in
11:46 8.6 °F 1.1 °F 1035.8 in ENE 9.3 mph 9.3 mph 59 % 0.0 in
11:49 8.8 °F 1.4 °F 1035.8 in East 5.6 mph 5.6 mph 60 % 0.0 in
11:52 9.0 °F 1.7 °F 1035.8 in NNE 4.2 mph 4.2 mph 60 % 0.0 in
11:57 9.1 °F 1.5 °F 1035.8 in NE 5.6 mph 5.6 mph 59 % 0.0 in
12:02 9.1 °F 1.5 °F 1035.8 in NE 5.6 mph 5.6 mph 59 % 0.0 in
12:07 9.4 °F 1.8 °F 1035.8 in ENE 5.6 mph 5.6 mph 59 % 0.0 in
12:08 9.5 °F 1.9 °F 1035.8 in SE 5.6 mph 5.6 mph 59 % 0.0 in
12:13 9.8 °F 2.2 °F 1035.8 in WNW 5.6 mph 5.6 mph 59 % 0.0 in
12:18 9.8 °F 1.9 °F 1035.8 in ENE 7.4 mph 7.4 mph 58 % 0.0 in
12:20 9.7 °F 1.8 °F 1035.8 in ENE 5.6 mph 5.6 mph 58 % 0.0 in
12:25 10.1 °F 2.2 °F 1035.8 in NE 3.9 mph 3.9 mph 58 % 0.0 in
12:29 10.0 °F 1.9 °F 1035.8 in NE 5.6 mph 5.6 mph 57 % 0.0 in
12:30 10.0 °F 1.9 °F 1035.8 in East 5.6 mph 5.6 mph 57 % 0.0 in
12:35 10.1 °F 1.7 °F 1035.8 in NNE 5.6 mph 5.6 mph 56 % 0.0 in
12:39 10.0 °F 1.6 °F 1035.8 in NE 5.6 mph 5.6 mph 56 % 0.0 in
12:44 10.5 °F 2.3 °F 1035.8 in NE 6.1 mph 6.1 mph 57 % 0.0 in
12:48 10.5 °F 2.1 °F 1035.8 in North 4.2 mph 4.2 mph 56 % 0.0 in
12:49 10.7 °F 2.3 °F 1035.8 in NE 3.7 mph 3.7 mph 56 % 0.0 in
12:56 10.8 °F 2.1 °F 1034.8 in NNE 5.6 mph 5.6 mph 55 % 0.0 in
13:01 10.7 °F 2.0 °F 1034.8 in NE 5.6 mph 5.6 mph 55 % 0.0 in
13:06 11.1 °F 2.4 °F 1034.8 in ENE 3.7 mph 3.7 mph 55 % 0.0 in
13:07 11.1 °F 2.4 °F 1034.8 in WNW 3.7 mph 3.7 mph 55 % 0.0 in
13:12 11.3 °F 2.6 °F 1034.8 in ENE 5.3 mph 5.3 mph 55 % 0.0 in
13:17 11.4 °F 2.7 °F 1034.8 in NNE 5.8 mph 5.8 mph 55 % 0.0 in
13:18 11.4 °F 2.7 °F 1034.8 in ENE 6.4 mph 6.4 mph 55 % 0.0 in
13:23 11.5 °F 2.8 °F 1034.8 in NE 3.7 mph 3.7 mph 55 % 0.0 in
13:28 11.7 °F 2.9 °F 1034.8 in WNW 2.3 mph   55 % 0.0 in
13:29 11.8 °F 2.8 °F 1034.8 in NE 1.9 mph 1.9 mph 54 % 0.0 in
13:35 11.7 °F 2.7 °F 1034.8 in ENE 5.3 mph 5.3 mph 54 % 0.0 in
13:36 11.6 °F 2.6 °F 1034.8 in East 5.6 mph 5.6 mph 54 % 0.0 in
13:41 11.6 °F 2.6 °F 1034.8 in NNE 5.3 mph 5.3 mph 54 % 0.0 in
13:43 11.5 °F 2.2 °F 1034.8 in NE 5.6 mph 5.6 mph 53 % 0.0 in
13:46 11.6 °F 2.6 °F 1034.8 in NNE 5.6 mph 5.6 mph 54 % 0.0 in
13:51 11.4 °F 2.2 °F 1034.8 in North 1.9 mph 1.9 mph 53 % 0.0 in
13:56 11.6 °F 2.6 °F 1034.8 in NNW 3.7 mph 3.7 mph 54 % 0.0 in
13:58 11.6 °F 2.6 °F 1034.8 in NNE 3.7 mph 3.7 mph 54 % 0.0 in
14:02 11.7 °F 2.7 °F 1034.8 in ENE 5.6 mph 5.6 mph 54 % 0.0 in
14:07 11.7 °F 2.7 °F 1034.8 in WNW 3.7 mph 3.7 mph 54 % 0.0 in
14:08 11.7 °F 2.7 °F 1034.8 in NNE 3.7 mph 3.9 mph 54 % 0.0 in
14:10 11.7 °F 2.7 °F 1034.8 in North 3.2 mph 8.0 mph 54 % 0.0 in
14:13 11.7 °F 2.4 °F 1034.8 in NNE 5.6 mph 5.6 mph 53 % 0.0 in
14:16 11.8 °F 2.5 °F 1034.8 in ESE 3.7 mph 3.9 mph 53 % 0.0 in
14:19 11.9 °F 2.6 °F 1034.8 in NNE 5.6 mph 5.6 mph 53 % 0.0 in
14:24 11.9 °F 2.6 °F 1033.7 in NNW 3.7 mph 3.7 mph 53 % 0.0 in
14:26 11.9 °F 2.6 °F 1033.7 in NNE 3.9 mph 3.9 mph 53 % 0.0 in
14:28 11.9 °F 2.6 °F 1033.7 in NNW 4.7 mph 4.7 mph 53 % 0.0 in
14:33 12.0 °F 2.7 °F 1033.7 in NE 5.6 mph 5.6 mph 53 % 0.0 in
14:34 12.0 °F 2.7 °F 1033.7 in NNE 5.0 mph 5.0 mph 53 % 0.0 in
14:37 12.0 °F 2.7 °F 1033.7 in NE 5.6 mph 5.6 mph 53 % 0.0 in
14:40 12.0 °F 2.7 °F 1033.7 in NNE 5.6 mph 5.6 mph 53 % 0.0 in
14:45 12.0 °F 2.7 °F 1033.7 in NE 3.9 mph 3.9 mph 53 % 0.0 in
14:46 12.1 °F 2.8 °F 1033.7 in NE 3.7 mph 3.7 mph 53 % 0.0 in
14:51 12.1 °F 2.6 °F 1033.7 in NNE 3.9 mph 3.9 mph 52 % 0.0 in
14:52 12.1 °F 2.6 °F 1033.7 in NNE 3.9 mph 3.9 mph 52 % 0.0 in
14:57 12.2 °F 2.6 °F 1033.7 in East 3.7 mph 3.7 mph 52 % 0.0 in
14:58 12.2 °F 2.6 °F 1033.7 in East 3.7 mph 3.7 mph 52 % 0.0 in
15:03 12.3 °F 2.7 °F 1033.7 in NNE 3.7 mph 3.7 mph 52 % 0.0 in
15:04 12.3 °F 2.7 °F 1033.7 in ENE 3.9 mph 3.9 mph 52 % 0.0 in
15:09 12.4 °F 2.8 °F 1033.7 in ENE 3.7 mph 3.7 mph 52 % 0.0 in
15:14 12.4 °F 2.8 °F 1033.7 in WNW 3.7 mph 3.7 mph 52 % 0.0 in
15:15 12.4 °F 2.8 °F 1033.7 in North 3.7 mph 3.7 mph 52 % 0.0 in
15:16 12.4 °F 3.1 °F 1033.7 in ENE 3.7 mph 3.7 mph 53 % 0.0 in
15:20 12.5 °F 2.9 °F 1033.7 in NE 4.7 mph 4.7 mph 52 % 0.0 in
15:25 12.5 °F 3.2 °F 1033.7 in NW 1.9 mph 1.9 mph 53 % 0.0 in
15:30 12.5 °F 2.9 °F 1033.7 in NNE 3.7 mph 3.7 mph 52 % 0.0 in
15:32 12.5 °F 2.9 °F 1033.7 in ENE 3.7 mph   52 % 0.0 in
15:37 12.5 °F 2.9 °F 1033.7 in NE 1.9 mph 1.9 mph 52 % 0.0 in
15:38 12.5 °F 2.9 °F 1033.7 in ENE 3.7 mph 3.7 mph 52 % 0.0 in
15:43 12.5 °F 2.9 °F 1033.7 in NNE 4.2 mph 4.2 mph 52 % 0.0 in
15:44 12.5 °F 2.9 °F 1033.7 in NNE 3.9 mph 3.9 mph 52 % 0.0 in
15:49 12.5 °F 2.9 °F 1033.7 in NE 2.6 mph 2.6 mph 52 % 0.0 in
15:51 12.5 °F 2.9 °F 1033.7 in NE 2.3 mph   52 % 0.0 in
15:56 12.5 °F 2.9 °F 1033.7 in NE 2.3 mph 2.3 mph 52 % 0.0 in
15:58 12.5 °F 2.9 °F 1033.7 in NE 1.9 mph   52 % 0.0 in
16:03 12.6 °F 3.0 °F 1033.7 in West 2.3 mph 2.3 mph 52 % 0.0 in
16:06 12.8 °F 3.2 °F 1033.7 in Calm     52 % 0.0 in
16:11 12.7 °F 3.1 °F 1033.7 in ENE 1.9 mph   52 % 0.0 in
16:13 12.7 °F 3.1 °F 1033.7 in ENE 1.9 mph   52 % 0.0 in
16:18 12.7 °F 3.1 °F 1033.7 in Calm     52 % 0.0 in
16:19 12.7 °F 3.1 °F 1033.7 in Calm     52 % 0.0 in
16:24 12.7 °F 3.1 °F 1033.7 in Calm     52 % 0.0 in
16:25 12.7 °F 3.1 °F 1033.7 in Calm     52 % 0.0 in
16:28 12.7 °F 3.1 °F 1033.7 in Calm     52 % 0.0 in
16:31 12.6 °F 3.0 °F 1033.7 in Calm     52 % 0.0 in
16:36 12.6 °F 3.0 °F 1033.7 in Calm     52 % 0.0 in
16:37 12.6 °F 3.0 °F 1033.7 in Calm     52 % 0.0 in
16:42 12.4 °F 2.8 °F 1033.7 in Calm     52 % 0.0 in
16:44 12.4 °F 2.8 °F 1033.7 in Calm     52 % 0.0 in
16:48 12.3 °F 2.7 °F 1033.7 in Calm     52 % 0.0 in
16:53 12.3 °F 2.7 °F 1033.7 in Calm     52 % 0.0 in
16:54 12.3 °F 2.7 °F 1033.7 in NW 1.9 mph   52 % 0.0 in
16:59 12.3 °F 2.7 °F 1033.7 in NW 1.9 mph 1.9 mph 52 % 0.0 in
17:02 12.3 °F 2.7 °F 1033.7 in Calm     52 % 0.0 in
17:07 12.3 °F 2.7 °F 1033.7 in Calm     52 % 0.0 in
17:08 12.3 °F 2.7 °F 1033.7 in Calm     52 % 0.0 in
17:12 12.2 °F 2.6 °F 1033.7 in Calm     52 % 0.0 in
17:14 12.2 °F 2.6 °F 1033.7 in Calm     52 % 0.0 in
17:19 11.9 °F 2.3 °F 1033.7 in Calm     52 % 0.0 in
17:20 11.8 °F 2.3 °F 1033.7 in Calm     52 % 0.0 in
17:21 11.8 °F 2.3 °F 1033.7 in Calm     52 % 0.0 in
17:25 11.6 °F 2.1 °F 1032.7 in Calm     52 % 0.0 in
17:30 11.4 °F 1.9 °F 1032.7 in Calm     52 % 0.0 in
17:31 11.4 °F 1.9 °F 1032.7 in Calm     52 % 0.0 in
17:32 11.3 °F 1.8 °F 1032.7 in Calm     52 % 0.0 in
17:37 11.1 °F 1.6 °F 1032.7 in Calm     52 % 0.0 in
17:42 10.9 °F 1.4 °F 1033.7 in North 1.9 mph   52 % 0.0 in
17:43 10.9 °F 1.4 °F 1033.7 in North 1.9 mph   52 % 0.0 in
17:48 10.7 °F 1.2 °F 1033.7 in WNW 1.9 mph 1.9 mph 52 % 0.0 in
17:53 10.6 °F 1.2 °F 1033.7 in WNW 1.9 mph   52 % 0.0 in
17:55 10.5 °F 1.1 °F 1034.8 in WNW 1.4 mph   52 % 0.0 in
18:00 10.4 °F 0.9 °F 1034.8 in Calm   1.9 mph 52 % 0.0 in
18:05 10.3 °F 0.9 °F 1034.8 in Calm   1.9 mph 52 % 0.0 in
18:08 10.2 °F 0.8 °F 1034.8 in NNE 1.9 mph 1.9 mph 52 % 0.0 in
18:14 10.1 °F 0.7 °F 1033.7 in Calm   1.9 mph 52 % 0.0 in
18:15 10.1 °F 0.7 °F 1033.7 in Calm   1.9 mph 52 % 0.0 in
18:19 10.0 °F 0.6 °F 1033.7 in Calm   2.3 mph 52 % 0.0 in
18:22 10.0 °F 0.6 °F 1033.7 in Calm     52 % 0.0 in
18:25 9.9 °F 0.5 °F 1033.7 in Calm     52 % 0.0 in
18:27 9.9 °F 0.5 °F 1033.7 in Calm     52 % 0.0 in
18:31 9.8 °F 0.7 °F 1033.7 in Calm     53 % 0.0 in
18:36 9.7 °F 0.6 °F 1033.7 in Calm     53 % 0.0 in
18:40 9.3 °F 0.2 °F 1034.8 in Calm     53 % 0.0 in
18:42 9.3 °F 0.2 °F 1034.8 in SW 1.9 mph 2.3 mph 53 % 0.0 in
18:45 5.6 °F -0.4 °F 1033.7 in WSW 1.6 mph 3.2 mph 65 % 0.0 in
18:47 8.9 °F -0.2 °F 1034.8 in SW 3.7 mph 3.7 mph 53 % 0.0 in
18:49 8.8 °F -0.3 °F 1034.8 in SW 2.3 mph 2.3 mph 53 % 0.0 in
18:52 8.8 °F -0.3 °F 1034.8 in Calm     53 % 0.0 in
18:54 8.8 °F -0.3 °F 1034.8 in SW 1.4 mph 1.9 mph 53 % 0.0 in
18:55 5.9 °F -0.2 °F 1032.7 in Calm   4.8 mph 65 % 0.0 in
18:59 8.8 °F -0.3 °F 1034.8 in SW 3.9 mph 3.9 mph 53 % 0.0 in
19:04 8.8 °F 0.0 °F 1034.8 in West 1.9 mph 1.9 mph 54 % 0.0 in
19:05 5.9 °F -0.4 °F 1033.7 in North 1.6 mph 4.8 mph 64 % 0.0 in
19:06 8.7 °F -0.1 °F 1034.8 in West 1.4 mph   54 % 0.0 in
19:11 8.6 °F -0.2 °F 1034.8 in Calm     54 % 0.0 in
19:12 8.6 °F -0.2 °F 1034.8 in Calm     54 % 0.0 in
19:15 5.9 °F -0.4 °F 1033.7 in NW 1.6 mph 3.2 mph 64 % 0.0 in
19:17 8.5 °F -0.3 °F 1034.8 in SSW 1.9 mph   54 % 0.0 in
19:18 8.4 °F -0.4 °F 1034.8 in SSW 3.7 mph 3.7 mph 54 % 0.0 in
19:24 8.4 °F -0.1 °F 1033.7 in SW 3.5 mph 3.5 mph 55 % 0.0 in
19:25 8.4 °F -0.1 °F 1033.7 in SW 3.7 mph 3.7 mph 55 % 0.0 in
19:30 8.3 °F -0.2 °F 1033.7 in SW 1.9 mph 2.3 mph 55 % 0.0 in
19:31 8.3 °F -0.2 °F 1033.7 in SW 1.9 mph   55 % 0.0 in
19:35 8.3 °F -0.2 °F 1033.7 in Calm     55 % 0.0 in
19:40 8.2 °F -0.3 °F 1033.7 in Calm     55 % 0.0 in
19:45 8.1 °F -0.2 °F 1033.7 in Calm     56 % 0.0 in
19:46 8.1 °F -0.2 °F 1033.7 in Calm     56 % 0.0 in
19:51 8.0 °F -0.3 °F 1033.7 in WSW 1.9 mph 1.9 mph 56 % 0.0 in
19:52 8.0 °F -0.3 °F 1033.7 in WSW 1.9 mph   56 % 0.0 in
19:55 6.0 °F -0.3 °F 1032.7 in NW 1.6 mph 1.6 mph 64 % 0.0 in
19:56 7.9 °F -0.1 °F 1033.7 in Calm     57 % 0.0 in
19:57 7.9 °F -0.1 °F 1033.7 in Calm     57 % 0.0 in
20:02 7.8 °F -0.2 °F 1033.7 in Calm     57 % 0.0 in
20:05 6.1 °F -0.2 °F 1032.7 in NW 1.6 mph 1.6 mph 64 % 0.0 in
20:07 7.8 °F -0.2 °F 1033.7 in WNW 1.9 mph 1.9 mph 57 % 0.0 in
20:12 7.8 °F 0.1 °F 1033.7 in West 3.5 mph   58 % 0.0 in
20:15 7.8 °F 0.1 °F 1033.7 in WSW 3.7 mph 3.7 mph 58 % 0.0 in
20:17 7.8 °F 0.1 °F 1033.7 in WSW 3.7 mph 3.7 mph 58 % 0.0 in
20:22 7.7 °F -0.1 °F 1033.7 in SW 1.9 mph   58 % 0.0 in
20:24 7.7 °F -0.1 °F 1033.7 in Calm     58 % 0.0 in
20:25 7.7 °F -0.1 °F 1033.7 in Calm     58 % 0.0 in
20:30 7.6 °F -0.2 °F 1033.7 in SW 3.7 mph 3.7 mph 58 % 0.0 in
20:31 7.6 °F -0.2 °F 1033.7 in WSW 3.9 mph 3.9 mph 58 % 0.0 in
20:35 6.0 °F -0.3 °F 1032.7 in NNW 1.6 mph 3.2 mph 64 % 0.0 in
20:36 7.6 °F 0.1 °F 1033.7 in West 5.0 mph 5.0 mph 59 % 0.0 in
20:41 7.7 °F 0.2 °F 1033.7 in WSW 2.3 mph   59 % 0.0 in
20:42 7.7 °F 0.2 °F 1033.7 in SW 3.2 mph 3.2 mph 59 % 0.0 in
20:43 7.7 °F 0.2 °F 1033.7 in SW 2.6 mph 2.6 mph 59 % 0.0 in
20:45 6.0 °F -0.3 °F 1032.7 in Calm   3.2 mph 64 % 0.0 in
20:47 7.5 °F 0.0 °F 1033.7 in WSW 3.7 mph 3.7 mph 59 % 0.0 in
20:52 7.4 °F -0.1 °F 1033.7 in WNW 4.7 mph 4.7 mph 59 % 0.0 in
20:53 7.4 °F -0.1 °F 1033.7 in WNW 2.6 mph 2.6 mph 59 % 0.0 in
20:55 6.1 °F -0.2 °F 1032.1 in NNE 3.2 mph 3.2 mph 64 % 0.0 in
20:58 7.4 °F 0.1 °F 1033.7 in Calm     60 % 0.0 in
20:59 7.5 °F 0.2 °F 1033.7 in Calm     60 % 0.0 in
21:03 7.4 °F 0.1 °F 1033.7 in WSW 3.5 mph   60 % 0.0 in
21:05 6.3 °F -0.2 °F 1032.1 in NNE 1.6 mph 4.8 mph 63 % 0.0 in
21:08 7.3 °F 0.1 °F 1033.7 in WSW 1.9 mph 1.9 mph 60 % 0.0 in
21:09 7.3 °F 0.1 °F 1033.7 in WSW 1.9 mph   60 % 0.0 in
21:10 7.3 °F 0.1 °F 1033.7 in Calm     60 % 0.0 in
21:14 7.3 °F 0.1 °F 1033.7 in West 2.3 mph 2.3 mph 60 % 0.0 in
21:15 6.3 °F -0.2 °F 1032.1 in NNE 4.8 mph 9.7 mph 63 % 0.0 in
21:19 7.4 °F 0.1 °F 1033.7 in WSW 3.7 mph 3.7 mph 60 % 0.0 in
21:20 7.4 °F 0.1 °F 1033.7 in WSW 3.7 mph 3.7 mph 60 % 0.0 in
21:24 7.4 °F 0.1 °F 1033.7 in West 3.7 mph 3.7 mph 60 % 0.0 in
21:25 6.2 °F -0.3 °F 1032.1 in NE 1.6 mph 6.4 mph 63 % 0.0 in
21:26 7.4 °F 0.1 °F 1033.7 in West 3.2 mph   60 % 0.0 in
21:31 7.4 °F 0.4 °F 1033.7 in West 1.9 mph   61 % 0.0 in
21:32 7.4 °F 0.1 °F 1033.7 in Calm     60 % 0.0 in
21:35 6.2 °F -0.3 °F 1032.1 in ENE 3.2 mph 4.8 mph 63 % 0.0 in
21:37 7.2 °F -0.1 °F 1033.7 in WSW 3.7 mph 3.7 mph 60 % 0.0 in
21:38 7.2 °F -0.1 °F 1033.7 in WSW 3.9 mph 3.9 mph 60 % 0.0 in
21:43 7.0 °F 0.0 °F 1033.7 in SW 3.9 mph 3.9 mph 61 % 0.0 in
21:45 6.8 °F -0.2 °F 1033.7 in SW 4.2 mph 4.2 mph 61 % 0.0 in
21:50 6.5 °F -0.5 °F 1033.7 in SW 3.7 mph 3.7 mph 61 % 0.0 in
21:51 6.5 °F -0.5 °F 1033.7 in WSW 4.2 mph 4.2 mph 61 % 0.0 in
21:55 6.0 °F -0.3 °F 1030.7 in Calm   3.2 mph 64 % 0.0 in
21:56 6.5 °F -0.5 °F 1033.7 in WSW 3.7 mph 3.7 mph 61 % 0.0 in
22:01 6.4 °F -0.6 °F 1033.7 in SW 2.3 mph 2.3 mph 61 % 0.0 in
22:03 6.3 °F -0.7 °F 1033.7 in SW 2.6 mph 2.6 mph 61 % 0.0 in
22:05 6.0 °F -0.3 °F 1030.7 in NE 4.8 mph 4.8 mph 64 % 0.0 in
22:08 6.2 °F -0.6 °F 1033.7 in SW 3.7 mph 3.7 mph 62 % 0.0 in
22:10 6.2 °F -0.6 °F 1033.7 in SW 3.7 mph 3.7 mph 62 % 0.0 in
22:13 6.2 °F -0.6 °F 1033.7 in SW 3.7 mph 3.7 mph 62 % 0.0 in
22:15 6.0 °F -0.3 °F 1030.7 in NNE 3.2 mph 6.4 mph 64 % 0.0 in
22:18 6.1 °F -0.7 °F 1033.7 in WSW 4.7 mph 4.7 mph 62 % 0.0 in
22:19 6.1 °F -0.7 °F 1033.7 in SW 3.9 mph 3.9 mph 62 % 0.0 in
22:24 6.0 °F -0.7 °F 1033.7 in WSW 3.7 mph 3.7 mph 62 % 0.0 in
22:25 6.0 °F -0.7 °F 1033.7 in WSW 3.7 mph 3.7 mph 62 % 0.0 in
22:30 5.9 °F -0.8 °F 1033.7 in SW 3.7 mph 3.7 mph 62 % 0.0 in
22:33 5.9 °F -0.6 °F 1033.7 in SW 1.9 mph   63 % 0.0 in
22:35 6.0 °F -0.3 °F 1032.1 in NNE 1.6 mph 6.4 mph 64 % 0.0 in
22:36 5.9 °F -0.6 °F 1033.7 in West 3.7 mph 3.7 mph 63 % 0.0 in
22:38 5.9 °F -0.8 °F 1033.7 in WSW 3.7 mph 3.7 mph 62 % 0.0 in
22:43 5.9 °F -0.6 °F 1033.7 in WSW 3.7 mph 3.7 mph 63 % 0.0 in
22:48 5.9 °F -0.6 °F 1033.7 in Calm     63 % 0.0 in
22:51 5.8 °F -0.7 °F 1033.7 in Calm     63 % 0.0 in
22:56 5.9 °F -0.6 °F 1033.7 in WSW 2.3 mph   63 % 0.0 in
22:57 5.9 °F -0.6 °F 1033.7 in WSW 1.9 mph 1.9 mph 63 % 0.0 in
23:02 6.0 °F -0.5 °F 1033.7 in Calm     63 % 0.0 in
23:03 6.0 °F -0.3 °F 1033.7 in Calm     64 % 0.0 in
23:05 5.8 °F -0.5 °F 1032.1 in NE 3.2 mph 6.4 mph 64 % 0.0 in
23:08 5.9 °F -0.6 °F 1033.7 in WSW 3.7 mph 3.7 mph 63 % 0.0 in
23:11 5.8 °F -0.7 °F 1033.7 in WSW 3.2 mph 3.2 mph 63 % 0.0 in
23:13 6.0 °F -0.5 °F 1033.7 in WSW 3.7 mph 3.7 mph 63 % 0.0 in
23:15 5.8 °F -0.5 °F 1032.1 in NNE 3.2 mph 4.8 mph 64 % 0.0 in
23:18 6.0 °F -0.3 °F 1033.7 in WSW 2.3 mph 2.3 mph 64 % 0.0 in
23:19 6.0 °F -0.3 °F 1033.7 in WSW 2.3 mph 2.3 mph 64 % 0.0 in
23:24 5.9 °F -0.4 °F 1033.7 in WSW 3.7 mph 3.7 mph 64 % 0.0 in
23:25 5.6 °F -0.7 °F 1030.7 in North 3.2 mph 4.8 mph 64 % 0.0 in
23:29 5.9 °F -0.4 °F 1032.7 in WSW 3.7 mph 3.7 mph 64 % 0.0 in
23:32 5.9 °F -0.6 °F 1032.7 in West 3.7 mph 3.7 mph 63 % 0.0 in
23:35 6.0 °F -0.5 °F 1032.7 in WSW 3.7 mph 3.9 mph 63 % 0.0 in
23:39 6.0 °F -0.5 °F 1032.7 in WNW 1.9 mph 1.9 mph 63 % 0.0 in
23:41 6.0 °F -0.3 °F 1033.7 in NW 1.9 mph   64 % 0.0 in
23:45 6.0 °F -0.3 °F 1033.7 in NE 3.9 mph 3.9 mph 64 % 0.0 in
23:46 6.0 °F -0.3 °F 1033.7 in NNE 3.7 mph 3.7 mph 64 % 0.0 in
23:51 6.0 °F -0.3 °F 1033.7 in WNW 1.9 mph 1.9 mph 64 % 0.0 in
23:52 6.0 °F -0.3 °F 1033.7 in WNW 1.9 mph 1.9 mph 64 % 0.0 in
23:55 5.2 °F -1.1 °F 1030.7 in Calm   3.2 mph 64 % 0.0 in
23:57 6.0 °F -0.3 °F 1033.7 in Calm     64 % 0.0 in
23:58 5.9 °F -0.4 °F 1033.7 in West 3.2 mph   64 % 0.0 in
Meteo Sesrovires
Elogis d' Weather Underground - 4 mb

Guio original per  Jim McMurry - jmcmurry@mwt.net Adaptat per a la plantilla per  Wim van der Kuil - Leuven-Template.eu

Trobareu la nostra informacio del temps tambe a:

Weather Underground

AWEKAS